createdAt,value
2023-06-16T00:00:49.208Z,2.90
2023-06-16T00:01:49.256Z,2.80
2023-06-16T00:02:49.174Z,2.70
2023-06-16T00:03:49.214Z,2.80
2023-06-16T00:04:49.145Z,3.00
2023-06-16T00:05:49.129Z,2.90
2023-06-16T00:06:49.125Z,2.70
2023-06-16T00:07:49.127Z,3.00
2023-06-16T00:08:49.114Z,3.00
2023-06-16T00:09:49.170Z,2.80
2023-06-16T00:10:49.081Z,3.40
2023-06-16T00:11:49.105Z,2.90
2023-06-16T00:12:49.051Z,2.90
2023-06-16T00:13:49.062Z,3.00
2023-06-16T00:14:49.066Z,3.00
2023-06-16T00:15:49.071Z,3.50
2023-06-16T00:16:49.010Z,3.00
2023-06-16T00:17:49.076Z,3.00
2023-06-16T00:18:49.007Z,2.90
2023-06-16T00:19:48.994Z,2.90
2023-06-16T00:20:48.994Z,3.20
2023-06-16T00:21:48.965Z,2.70
2023-06-16T00:22:49.332Z,2.90
2023-06-16T00:23:48.954Z,3.30
2023-06-16T00:24:48.922Z,2.90
2023-06-16T00:25:48.927Z,3.20
2023-06-16T00:26:48.898Z,2.70
2023-06-16T00:27:48.900Z,3.10
2023-06-16T00:28:48.887Z,3.10
2023-06-16T00:29:48.882Z,3.00
2023-06-16T00:30:48.853Z,3.00
2023-06-16T00:31:48.883Z,2.90
2023-06-16T00:32:48.898Z,3.20
2023-06-16T00:33:48.848Z,3.10
2023-06-16T00:34:48.819Z,3.60
2023-06-16T00:35:48.803Z,3.30
2023-06-16T00:36:48.809Z,2.90
2023-06-16T00:37:48.795Z,3.10
2023-06-16T00:38:48.766Z,3.40
2023-06-16T00:39:48.781Z,3.00
2023-06-16T00:40:48.764Z,3.20
2023-06-16T00:41:55.754Z,3.20
2023-06-16T00:42:48.749Z,3.20
2023-06-16T00:43:48.734Z,3.00
2023-06-16T00:44:48.729Z,3.30
2023-06-16T00:45:48.692Z,2.90
2023-06-16T00:46:48.762Z,3.00
2023-06-16T00:47:48.765Z,3.20
2023-06-16T00:48:48.692Z,3.20
2023-06-16T00:49:48.682Z,3.60
2023-06-16T00:50:48.701Z,3.00
2023-06-16T00:51:48.634Z,3.00
2023-06-16T00:52:48.615Z,3.00
2023-06-16T00:53:48.617Z,3.10
2023-06-16T00:54:48.601Z,3.30
2023-06-16T00:55:48.621Z,2.80
2023-06-16T00:56:48.577Z,3.00
2023-06-16T00:57:48.563Z,3.00
2023-06-16T00:58:48.565Z,3.30
2023-06-16T00:59:48.570Z,3.10
2023-06-16T01:00:48.536Z,3.20
2023-06-16T01:01:48.561Z,3.20
2023-06-16T01:02:48.720Z,2.80
2023-06-16T01:03:48.508Z,3.10
2023-06-16T01:04:48.511Z,3.10
2023-06-16T01:05:48.502Z,3.00
2023-06-16T01:06:48.481Z,3.10
2023-06-16T01:07:48.474Z,3.00
2023-06-16T01:08:48.459Z,3.00
2023-06-16T01:09:48.438Z,2.90
2023-06-16T01:10:48.433Z,2.90
2023-06-16T01:11:48.457Z,3.10
2023-06-16T01:12:48.419Z,3.00
2023-06-16T01:13:48.385Z,3.10
2023-06-16T01:14:48.373Z,3.20
2023-06-16T01:15:48.362Z,3.00
2023-06-16T01:16:48.377Z,3.30
2023-06-16T01:17:48.380Z,3.20
2023-06-16T01:18:48.342Z,3.20
2023-06-16T01:19:48.376Z,3.20
2023-06-16T01:20:48.305Z,3.00
2023-06-16T01:21:48.350Z,3.10
2023-06-16T01:22:48.290Z,3.10
2023-06-16T01:23:48.357Z,3.50
2023-06-16T01:24:48.296Z,3.20
2023-06-16T01:25:48.263Z,3.40
2023-06-16T01:26:48.246Z,3.20
2023-06-16T01:27:48.239Z,3.30
2023-06-16T01:28:48.235Z,3.20
2023-06-16T01:29:48.222Z,3.30
2023-06-16T01:30:48.196Z,3.20
2023-06-16T01:31:48.201Z,3.20
2023-06-16T01:32:48.223Z,3.10
2023-06-16T01:33:48.169Z,3.30
2023-06-16T01:34:48.153Z,3.60
2023-06-16T01:35:48.159Z,3.20
2023-06-16T01:36:48.144Z,3.20
2023-06-16T01:37:48.243Z,3.40
2023-06-16T01:38:48.153Z,3.20
2023-06-16T01:39:48.112Z,3.30
2023-06-16T01:40:48.089Z,3.30
2023-06-16T01:41:48.103Z,3.40
2023-06-16T01:42:48.073Z,3.40
2023-06-16T01:43:48.111Z,3.20
2023-06-16T01:44:48.050Z,3.00
2023-06-16T01:45:48.071Z,3.20
2023-06-16T01:46:48.117Z,3.00
2023-06-16T01:47:48.037Z,3.60
2023-06-16T01:48:48.002Z,3.40
2023-06-16T01:49:48.013Z,3.30
2023-06-16T01:50:48.001Z,3.70
2023-06-16T01:51:47.991Z,3.30
2023-06-16T01:52:47.999Z,3.50
2023-06-16T01:53:47.976Z,3.80
2023-06-16T01:54:47.964Z,3.70
2023-06-16T01:55:47.944Z,3.70
2023-06-16T01:56:47.924Z,3.60
2023-06-16T01:57:47.926Z,3.30
2023-06-16T01:58:47.898Z,3.40
2023-06-16T01:59:47.881Z,3.50
2023-06-16T02:00:47.880Z,3.40
2023-06-16T02:01:47.876Z,3.30
2023-06-16T02:02:47.916Z,3.80
2023-06-16T02:03:48.054Z,3.10
2023-06-16T02:04:47.852Z,3.40
2023-06-16T02:05:47.817Z,3.70
2023-06-16T02:06:47.812Z,3.20
2023-06-16T02:07:47.801Z,3.90
2023-06-16T02:08:47.808Z,3.60
2023-06-16T02:09:47.832Z,3.60
2023-06-16T02:10:47.783Z,3.40
2023-06-16T02:11:47.765Z,3.60
2023-06-16T02:12:47.758Z,3.40
2023-06-16T02:13:47.733Z,4.00
2023-06-16T02:14:47.763Z,3.40
2023-06-16T02:15:47.738Z,3.50
2023-06-16T02:16:47.719Z,3.60
2023-06-16T02:17:47.727Z,3.70
2023-06-16T02:18:47.697Z,3.40
2023-06-16T02:19:47.677Z,3.50
2023-06-16T02:20:47.655Z,3.50
2023-06-16T02:21:47.664Z,3.00
2023-06-16T02:22:47.648Z,3.60
2023-06-16T02:23:47.674Z,3.50
2023-06-16T02:24:47.636Z,3.50
2023-06-16T02:25:47.625Z,3.40
2023-06-16T02:26:47.610Z,3.30
2023-06-16T02:27:47.613Z,3.70
2023-06-16T02:28:47.582Z,3.90
2023-06-16T02:29:47.589Z,3.60
2023-06-16T02:30:47.543Z,3.40
2023-06-16T02:31:47.573Z,3.30
2023-06-16T02:33:00.872Z,3.40
2023-06-16T02:33:47.558Z,3.10
2023-06-16T02:34:47.557Z,3.60
2023-06-16T02:35:47.509Z,3.80
2023-06-16T02:36:47.539Z,3.40
2023-06-16T02:37:47.466Z,3.50
2023-06-16T02:38:47.457Z,3.60
2023-06-16T02:39:47.454Z,3.80
2023-06-16T02:40:47.456Z,3.30
2023-06-16T02:41:47.461Z,3.70
2023-06-16T02:42:54.938Z,4.20
2023-06-16T02:43:47.399Z,3.70
2023-06-16T02:44:47.435Z,4.40
2023-06-16T02:45:47.391Z,4.00
2023-06-16T02:46:47.413Z,4.30
2023-06-16T02:47:47.381Z,4.40
2023-06-16T02:48:47.357Z,4.00
2023-06-16T02:49:47.354Z,4.50
2023-06-16T02:50:47.324Z,4.20
2023-06-16T02:51:47.334Z,5.30
2023-06-16T02:52:47.325Z,4.30
2023-06-16T02:53:47.346Z,4.20
2023-06-16T02:54:47.279Z,4.70
2023-06-16T02:55:47.283Z,4.00
2023-06-16T02:56:47.274Z,4.40
2023-06-16T02:57:47.263Z,4.40
2023-06-16T02:58:47.237Z,4.50
2023-06-16T02:59:47.234Z,4.30
2023-06-16T03:00:47.250Z,4.30
2023-06-16T03:01:47.199Z,4.40
2023-06-16T03:02:47.283Z,4.50
2023-06-16T03:03:47.203Z,4.70
2023-06-16T03:04:47.169Z,4.00
2023-06-16T03:05:47.199Z,4.50
2023-06-16T03:06:47.167Z,4.40
2023-06-16T03:07:47.129Z,4.10
2023-06-16T03:08:47.148Z,4.00
2023-06-16T03:09:47.133Z,4.30
2023-06-16T03:10:47.124Z,4.20
2023-06-16T03:11:47.117Z,4.20
2023-06-16T03:12:47.120Z,4.20
2023-06-16T03:13:47.086Z,4.30
2023-06-16T03:14:47.085Z,4.50
2023-06-16T03:15:47.057Z,4.00
2023-06-16T03:16:47.051Z,4.30
2023-06-16T03:17:47.100Z,4.50
2023-06-16T03:18:47.037Z,4.60
2023-06-16T03:19:47.004Z,4.30
2023-06-16T03:20:47.041Z,4.10
2023-06-16T03:21:46.977Z,4.40
2023-06-16T03:22:46.969Z,4.50
2023-06-16T03:23:47.017Z,4.10
2023-06-16T03:24:46.983Z,4.30
2023-06-16T03:25:46.947Z,4.20
2023-06-16T03:26:46.978Z,4.10
2023-06-16T03:27:46.925Z,5.00
2023-06-16T03:28:46.935Z,4.70
2023-06-16T03:29:47.022Z,4.40
2023-06-16T03:30:46.888Z,4.50
2023-06-16T03:31:46.881Z,4.40
2023-06-16T03:32:46.963Z,4.30
2023-06-16T03:33:46.847Z,4.30
2023-06-16T03:34:46.849Z,4.30
2023-06-16T03:35:46.844Z,4.70
2023-06-16T03:36:46.841Z,4.40
2023-06-16T03:37:46.843Z,4.60
2023-06-16T03:38:46.900Z,4.40
2023-06-16T03:39:46.779Z,4.20
2023-06-16T03:40:46.775Z,4.90
2023-06-16T03:41:46.789Z,4.40
2023-06-16T03:42:46.783Z,4.70
2023-06-16T03:43:46.742Z,4.20
2023-06-16T03:44:46.742Z,4.20
2023-06-16T03:45:46.772Z,4.50
2023-06-16T03:46:46.727Z,4.40
2023-06-16T03:47:46.738Z,4.20
2023-06-16T03:48:46.688Z,4.40
2023-06-16T03:49:46.696Z,4.70
2023-06-16T03:50:46.698Z,4.60
2023-06-16T03:51:46.673Z,4.40
2023-06-16T03:52:46.669Z,4.10
2023-06-16T03:53:46.649Z,4.90
2023-06-16T03:54:46.648Z,4.60
2023-06-16T03:55:46.608Z,4.10
2023-06-16T03:56:46.620Z,4.50
2023-06-16T03:57:46.585Z,4.90
2023-06-16T03:58:46.574Z,6.10
2023-06-16T03:59:46.575Z,5.10
2023-06-16T04:00:46.572Z,5.10
2023-06-16T04:01:46.672Z,4.70
2023-06-16T04:02:46.563Z,4.40
2023-06-16T04:03:46.548Z,4.50
2023-06-16T04:04:46.554Z,4.50
2023-06-16T04:05:46.547Z,4.30
2023-06-16T04:06:46.494Z,5.00
2023-06-16T04:07:46.472Z,4.40
2023-06-16T04:08:48.117Z,4.80
2023-06-16T04:09:46.465Z,4.90
2023-06-16T04:10:46.457Z,4.60
2023-06-16T04:11:46.427Z,4.60
2023-06-16T04:12:46.450Z,4.40
2023-06-16T04:13:46.411Z,4.70
2023-06-16T04:14:46.416Z,4.70
2023-06-16T04:15:46.381Z,4.60
2023-06-16T04:16:46.379Z,4.50
2023-06-16T04:17:46.420Z,4.40
2023-06-16T04:18:46.369Z,4.40
2023-06-16T04:19:46.368Z,4.30
2023-06-16T04:20:46.355Z,4.80
2023-06-16T04:21:46.316Z,5.00
2023-06-16T04:22:46.357Z,4.70
2023-06-16T04:23:46.334Z,4.50
2023-06-16T04:24:46.299Z,5.30
2023-06-16T04:25:46.268Z,4.80
2023-06-16T04:26:46.270Z,4.50
2023-06-16T04:27:46.254Z,4.90
2023-06-16T04:28:46.265Z,4.90
2023-06-16T04:29:46.259Z,4.90
2023-06-16T04:30:46.235Z,4.60
2023-06-16T04:31:46.219Z,4.60
2023-06-16T04:32:46.429Z,4.60
2023-06-16T04:33:46.222Z,4.80
2023-06-16T04:34:46.219Z,5.00
2023-06-16T04:35:46.188Z,4.70
2023-06-16T04:36:46.333Z,4.40
2023-06-16T04:37:46.141Z,4.80
2023-06-16T04:38:46.154Z,4.80
2023-06-16T04:39:46.129Z,4.10
2023-06-16T04:40:46.132Z,4.30
2023-06-16T04:41:46.118Z,4.90
2023-06-16T04:42:46.094Z,4.70
2023-06-16T04:45:02.009Z,4.50
2023-06-16T04:46:01.996Z,4.60
2023-06-16T04:47:01.975Z,4.90
2023-06-16T04:48:02.003Z,5.10
2023-06-16T04:49:01.982Z,5.20
2023-06-16T04:50:01.930Z,4.80
2023-06-16T04:51:01.990Z,5.30
2023-06-16T04:52:01.917Z,4.90
2023-06-16T04:53:01.897Z,4.80
2023-06-16T04:54:01.957Z,5.40
2023-06-16T04:55:01.875Z,4.50
2023-06-16T04:56:01.886Z,4.60
2023-06-16T04:57:01.863Z,4.90
2023-06-16T04:58:01.838Z,4.90
2023-06-16T04:59:01.899Z,5.00
2023-06-16T05:00:01.821Z,5.00
2023-06-16T05:01:01.809Z,5.50
2023-06-16T05:02:01.809Z,5.30
2023-06-16T05:03:01.874Z,4.60
2023-06-16T05:04:01.864Z,5.40
2023-06-16T05:05:01.780Z,5.70
2023-06-16T05:06:01.746Z,5.10
2023-06-16T05:07:01.754Z,4.80
2023-06-16T05:08:01.757Z,5.30
2023-06-16T05:09:01.752Z,5.00
2023-06-16T05:10:01.714Z,5.30
2023-06-16T05:11:01.710Z,5.20
2023-06-16T05:12:01.712Z,4.90
2023-06-16T05:13:01.682Z,5.20
2023-06-16T05:14:01.674Z,4.60
2023-06-16T05:15:01.650Z,5.90
2023-06-16T05:16:01.637Z,4.70
2023-06-16T05:17:01.657Z,5.20
2023-06-16T05:18:01.705Z,5.30
2023-06-16T05:19:01.843Z,5.10
2023-06-16T05:20:01.612Z,4.70
2023-06-16T05:21:01.611Z,4.90
2023-06-16T05:22:01.597Z,4.80
2023-06-16T05:23:01.578Z,5.00
2023-06-16T05:24:01.620Z,5.00
2023-06-16T05:25:01.625Z,4.70
2023-06-16T05:26:01.556Z,5.00
2023-06-16T05:27:01.552Z,5.00
2023-06-16T05:28:01.522Z,5.20
2023-06-16T05:29:01.513Z,4.50
2023-06-16T05:30:01.526Z,5.00
2023-06-16T05:31:01.524Z,4.90
2023-06-16T05:32:01.552Z,4.90
2023-06-16T05:33:01.594Z,4.90
2023-06-16T05:34:01.434Z,5.30
2023-06-16T05:35:01.431Z,4.70
2023-06-16T05:36:01.521Z,5.10
2023-06-16T05:37:01.447Z,5.20
2023-06-16T05:38:01.468Z,4.80
2023-06-16T05:39:01.381Z,4.80
2023-06-16T05:40:01.383Z,4.40
2023-06-16T05:41:01.445Z,5.00
2023-06-16T05:42:02.360Z,4.50
2023-06-16T05:43:01.334Z,4.80
2023-06-16T05:44:01.348Z,5.20
2023-06-16T05:45:01.344Z,5.10
2023-06-16T05:46:01.329Z,4.40
2023-06-16T05:47:01.290Z,4.90
2023-06-16T05:48:01.436Z,5.30
2023-06-16T05:49:01.269Z,5.20
2023-06-16T05:50:01.271Z,5.20
2023-06-16T05:51:01.247Z,5.20
2023-06-16T05:52:01.233Z,4.70
2023-06-16T05:53:01.276Z,4.90
2023-06-16T05:54:01.211Z,4.90
2023-06-16T05:55:01.216Z,5.30
2023-06-16T05:56:01.258Z,5.00
2023-06-16T05:57:01.196Z,5.70
2023-06-16T05:58:01.188Z,5.00
2023-06-16T05:59:01.192Z,5.30
2023-06-16T06:00:01.218Z,5.50
2023-06-16T06:01:01.140Z,4.90
2023-06-16T06:02:01.126Z,5.50
2023-06-16T06:03:01.392Z,5.40
2023-06-16T06:04:01.273Z,5.10
2023-06-16T06:05:01.125Z,5.00
2023-06-16T06:06:01.094Z,4.90
2023-06-16T06:07:01.141Z,5.10
2023-06-16T06:08:01.093Z,6.00
2023-06-16T06:09:01.088Z,5.90
2023-06-16T06:10:01.056Z,5.40
2023-06-16T06:11:01.118Z,5.20
2023-06-16T06:12:01.043Z,5.50
2023-06-16T06:13:01.025Z,5.10
2023-06-16T06:14:00.992Z,5.10
2023-06-16T06:15:01.009Z,4.80
2023-06-16T06:16:01.024Z,5.20
2023-06-16T06:17:00.960Z,4.90
2023-06-16T06:18:01.007Z,5.20
2023-06-16T06:19:00.937Z,4.90
2023-06-16T06:20:00.999Z,4.90
2023-06-16T06:21:00.921Z,5.20
2023-06-16T06:22:00.917Z,5.10
2023-06-16T06:23:00.927Z,4.80
2023-06-16T06:24:01.386Z,5.10
2023-06-16T06:25:00.946Z,4.80
2023-06-16T06:26:00.894Z,4.90
2023-06-16T06:27:00.862Z,4.90
2023-06-16T06:28:00.858Z,5.20
2023-06-16T06:29:00.883Z,5.40
2023-06-16T06:30:00.837Z,5.40
2023-06-16T06:31:00.947Z,5.10
2023-06-16T06:32:00.902Z,5.10
2023-06-16T06:33:00.870Z,5.10
2023-06-16T06:34:00.824Z,5.10
2023-06-16T06:35:00.841Z,5.00
2023-06-16T06:36:00.821Z,5.00
2023-06-16T06:37:00.804Z,7.80
2023-06-16T06:38:02.268Z,6.00
2023-06-16T06:39:00.746Z,6.00
2023-06-16T06:40:00.772Z,5.50
2023-06-16T06:41:00.783Z,5.50
2023-06-16T06:42:00.872Z,5.10
2023-06-16T06:43:01.050Z,5.50
2023-06-16T06:44:34.396Z,5.50
2023-06-16T06:45:50.710Z,5.60
2023-06-16T06:46:50.770Z,5.50
2023-06-16T06:47:50.675Z,5.70
2023-06-16T06:48:50.625Z,5.60
2023-06-16T06:49:50.667Z,5.20
2023-06-16T06:50:50.605Z,5.60
2023-06-16T06:51:50.599Z,5.70
2023-06-16T06:52:50.585Z,5.70
2023-06-16T06:53:50.603Z,5.30
2023-06-16T06:54:50.590Z,5.50
2023-06-16T06:55:50.563Z,6.00
2023-06-16T06:56:50.563Z,6.30
2023-06-16T06:57:50.693Z,5.70
2023-06-16T06:58:50.520Z,5.80
2023-06-16T06:59:50.570Z,6.10
2023-06-16T07:00:50.551Z,5.50
2023-06-16T07:01:50.527Z,5.10
2023-06-16T07:02:50.579Z,5.80
2023-06-16T07:03:50.610Z,6.00
2023-06-16T07:04:50.453Z,5.20
2023-06-16T07:05:50.455Z,5.90
2023-06-16T07:06:50.487Z,5.30
2023-06-16T07:07:50.459Z,5.40
2023-06-16T07:08:50.431Z,5.80
2023-06-16T07:09:51.157Z,5.30
2023-06-16T07:10:50.422Z,5.90
2023-06-16T07:11:50.397Z,5.40
2023-06-16T07:12:50.408Z,4.80
2023-06-16T07:13:50.358Z,5.40
2023-06-16T07:14:50.366Z,5.60
2023-06-16T07:15:50.382Z,4.70
2023-06-16T07:16:50.318Z,5.20
2023-06-16T07:17:50.337Z,4.80
2023-06-16T07:18:50.323Z,5.10
2023-06-16T07:19:50.313Z,5.50
2023-06-16T07:20:50.278Z,5.50
2023-06-16T07:21:50.306Z,5.70
2023-06-16T07:22:50.312Z,5.70
2023-06-16T07:23:50.316Z,5.10
2023-06-16T07:24:50.248Z,5.90
2023-06-16T07:25:50.231Z,5.40
2023-06-16T07:26:50.279Z,5.50
2023-06-16T07:27:50.246Z,5.50
2023-06-16T07:28:50.257Z,5.50
2023-06-16T07:29:50.201Z,5.20
2023-06-16T07:30:50.192Z,5.50
2023-06-16T07:31:50.181Z,6.10
2023-06-16T07:32:50.278Z,6.30
2023-06-16T07:33:50.154Z,5.40
2023-06-16T07:34:50.468Z,5.50
2023-06-16T07:35:50.123Z,5.10
2023-06-16T07:36:50.141Z,5.10
2023-06-16T07:37:50.093Z,5.40
2023-06-16T07:38:50.110Z,5.50
2023-06-16T07:39:50.109Z,5.80
2023-06-16T07:40:50.062Z,5.50
2023-06-16T07:41:50.057Z,5.40
2023-06-16T07:42:50.072Z,5.70
2023-06-16T07:43:50.037Z,6.20
2023-06-16T07:44:50.089Z,5.40
2023-06-16T07:45:50.161Z,5.80
2023-06-16T07:46:49.997Z,5.10
2023-06-16T07:47:50.150Z,5.90
2023-06-16T07:48:50.038Z,5.20
2023-06-16T07:49:50.003Z,5.20
2023-06-16T07:50:49.985Z,5.10
2023-06-16T07:51:49.957Z,5.50
2023-06-16T07:52:49.945Z,5.10
2023-06-16T07:53:49.951Z,5.30
2023-06-16T07:54:50.050Z,5.30
2023-06-16T07:55:49.921Z,5.00
2023-06-16T07:56:49.957Z,8.10
2023-06-16T07:57:49.880Z,5.80
2023-06-16T07:58:49.883Z,5.20
2023-06-16T07:59:49.884Z,5.00
2023-06-16T08:00:49.883Z,5.70
2023-06-16T08:01:49.974Z,5.50
2023-06-16T08:02:49.905Z,5.50
2023-06-16T08:03:49.948Z,5.60
2023-06-16T08:04:49.965Z,6.30
2023-06-16T08:05:49.905Z,5.20
2023-06-16T08:06:49.916Z,4.50
2023-06-16T08:07:49.824Z,4.30
2023-06-16T08:08:49.988Z,4.50
2023-06-16T08:09:49.800Z,3.60
2023-06-16T08:10:49.737Z,4.50
2023-06-16T08:11:49.729Z,4.30
2023-06-16T08:12:49.819Z,3.80
2023-06-16T08:13:49.708Z,4.30
2023-06-16T08:14:49.754Z,4.80
2023-06-16T08:15:49.741Z,4.40
2023-06-16T08:16:49.746Z,4.70
2023-06-16T08:17:49.735Z,4.80
2023-06-16T08:18:49.646Z,4.10
2023-06-16T08:19:49.670Z,4.90
2023-06-16T08:20:49.633Z,4.40
2023-06-16T08:21:49.665Z,3.70
2023-06-16T08:22:49.611Z,4.10
2023-06-16T08:23:49.681Z,4.00
2023-06-16T08:24:50.204Z,3.80
2023-06-16T08:25:49.689Z,3.60
2023-06-16T08:26:49.654Z,3.70
2023-06-16T08:27:49.645Z,3.80
2023-06-16T08:28:49.568Z,3.20
2023-06-16T08:29:49.668Z,3.70
2023-06-16T08:30:49.537Z,3.80
2023-06-16T08:31:49.800Z,4.30
2023-06-16T08:32:49.617Z,4.00
2023-06-16T08:33:49.992Z,3.80
2023-06-16T08:36:30.549Z,3.90
2023-06-16T08:37:31.556Z,3.80
2023-06-16T08:38:30.539Z,4.60
2023-06-16T08:39:30.548Z,4.20
2023-06-16T08:40:30.539Z,4.30
2023-06-16T08:41:30.492Z,4.50
2023-06-16T08:42:30.494Z,4.50
2023-06-16T08:43:30.493Z,4.20
2023-06-16T08:44:39.085Z,3.90
2023-06-16T08:45:30.447Z,4.40
2023-06-16T08:46:30.536Z,3.90
2023-06-16T08:47:31.022Z,4.10
2023-06-16T08:48:30.950Z,3.60
2023-06-16T08:49:30.488Z,3.50
2023-06-16T08:50:30.446Z,3.80
2023-06-16T08:51:30.412Z,3.90
2023-06-16T08:52:43.294Z,3.50
2023-06-16T08:53:30.974Z,3.60
2023-06-16T08:54:30.376Z,3.80
2023-06-16T08:55:30.683Z,3.70
2023-06-16T08:56:30.328Z,3.90
2023-06-16T08:57:30.353Z,3.90
2023-06-16T08:58:30.385Z,3.70
2023-06-16T08:59:30.367Z,4.00
2023-06-16T09:00:30.315Z,3.50
2023-06-16T09:01:30.279Z,3.30
2023-06-16T09:02:30.311Z,3.30
2023-06-16T09:03:30.326Z,3.70
2023-06-16T09:04:30.487Z,4.30
2023-06-16T09:05:33.182Z,3.50
2023-06-16T09:06:30.267Z,4.30
2023-06-16T09:07:30.300Z,7.20
2023-06-16T09:08:30.387Z,15.60
2023-06-16T09:09:30.352Z,10.00
2023-06-16T09:10:32.085Z,3.70
2023-06-16T09:11:30.161Z,7.50
2023-06-16T09:12:31.011Z,7.00
2023-06-16T09:13:31.191Z,4.60
2023-06-16T09:14:30.443Z,4.20
2023-06-16T09:15:30.332Z,4.00
2023-06-16T09:16:31.162Z,4.40
2023-06-16T09:17:30.171Z,3.60
2023-06-16T09:18:30.286Z,3.80
2023-06-16T09:19:30.083Z,3.70
2023-06-16T09:20:30.150Z,3.70
2023-06-16T09:21:33.677Z,3.50
2023-06-16T09:22:30.055Z,3.50
2023-06-16T09:23:30.035Z,2.70
2023-06-16T09:24:30.091Z,2.90
2023-06-16T09:25:30.065Z,3.00
2023-06-16T09:26:30.132Z,3.00
2023-06-16T09:27:30.002Z,3.00
2023-06-16T09:28:38.919Z,2.90
2023-06-16T09:29:29.980Z,3.50
2023-06-16T09:30:29.995Z,3.30
2023-06-16T09:31:29.954Z,3.30
2023-06-16T09:32:29.965Z,3.10
2023-06-16T09:33:29.966Z,3.80
2023-06-16T09:34:29.928Z,2.90
2023-06-16T09:35:29.962Z,2.90
2023-06-16T09:36:29.936Z,3.00
2023-06-16T09:37:29.915Z,3.00
2023-06-16T09:38:29.891Z,3.20
2023-06-16T09:39:29.854Z,2.70
2023-06-16T09:40:29.901Z,3.20
2023-06-16T09:41:29.851Z,3.10
2023-06-16T09:42:29.829Z,2.90
2023-06-16T09:43:29.854Z,2.80
2023-06-16T09:44:29.818Z,3.30
2023-06-16T09:45:29.883Z,3.30
2023-06-16T09:46:30.095Z,3.10
2023-06-16T09:47:29.980Z,3.00
2023-06-16T09:48:29.943Z,3.00
2023-06-16T09:49:29.851Z,3.30
2023-06-16T09:50:29.757Z,2.90
2023-06-16T09:51:29.740Z,3.00
2023-06-16T09:52:29.737Z,3.10
2023-06-16T09:53:29.747Z,2.70
2023-06-16T09:54:29.847Z,2.90
2023-06-16T09:55:29.702Z,3.00
2023-06-16T09:56:29.677Z,2.90
2023-06-16T09:57:29.662Z,3.10
2023-06-16T09:58:41.199Z,3.30
2023-06-16T09:59:29.935Z,3.30
2023-06-16T10:00:29.752Z,2.80
2023-06-16T10:01:29.631Z,3.00
2023-06-16T10:02:29.665Z,2.90
2023-06-16T10:03:29.721Z,3.20
2023-06-16T10:04:29.621Z,3.00
2023-06-16T10:05:29.647Z,3.00
2023-06-16T10:06:29.583Z,3.30
2023-06-16T10:07:29.638Z,6.30
2023-06-16T10:08:29.603Z,3.00
2023-06-16T10:09:29.524Z,2.80
2023-06-16T10:10:29.533Z,2.80
2023-06-16T10:11:29.578Z,3.10
2023-06-16T10:12:29.554Z,2.80
2023-06-16T10:13:29.511Z,3.30
2023-06-16T10:14:29.515Z,3.00
2023-06-16T10:15:29.461Z,2.80
2023-06-16T10:16:29.676Z,2.60
2023-06-16T10:17:32.699Z,2.70
2023-06-16T10:19:00.010Z,2.60
2023-06-16T10:19:29.518Z,2.50
2023-06-16T10:20:29.425Z,3.20
2023-06-16T10:21:29.393Z,3.00
2023-06-16T10:22:29.403Z,3.10
2023-06-16T10:23:29.395Z,2.80
2023-06-16T10:24:29.419Z,3.10
2023-06-16T10:25:29.409Z,2.70
2023-06-16T10:26:29.366Z,2.90
2023-06-16T10:27:29.345Z,4.10
2023-06-16T10:28:29.326Z,2.60
2023-06-16T10:29:29.333Z,2.40
2023-06-16T10:30:29.349Z,2.90
2023-06-16T10:31:29.292Z,3.00
2023-06-16T10:32:29.331Z,2.90
2023-06-16T10:33:30.103Z,2.90
2023-06-16T10:34:29.290Z,2.50
2023-06-16T10:35:29.283Z,2.60
2023-06-16T10:36:29.309Z,3.00
2023-06-16T10:37:29.229Z,2.50
2023-06-16T10:38:29.217Z,2.50
2023-06-16T10:39:29.692Z,2.40
2023-06-16T10:40:29.257Z,2.50
2023-06-16T10:41:29.210Z,2.50
2023-06-16T10:42:31.124Z,2.60
2023-06-16T10:43:29.169Z,2.40
2023-06-16T10:44:29.186Z,2.40
2023-06-16T10:45:37.196Z,2.60
2023-06-16T10:46:29.208Z,2.80
2023-06-16T10:47:29.269Z,2.80
2023-06-16T10:48:29.160Z,2.70
2023-06-16T10:49:29.096Z,2.60
2023-06-16T10:50:29.097Z,2.70
2023-06-16T10:51:29.182Z,2.70
2023-06-16T10:52:29.081Z,2.80
2023-06-16T10:53:29.091Z,2.60
2023-06-16T10:54:29.070Z,2.90
2023-06-16T10:55:29.029Z,2.50
2023-06-16T10:56:29.043Z,2.50
2023-06-16T10:57:29.011Z,2.60
2023-06-16T10:58:29.007Z,2.60
2023-06-16T10:59:29.020Z,2.90
2023-06-16T11:00:29.115Z,3.00
2023-06-16T11:01:29.074Z,2.80
2023-06-16T11:02:29.111Z,2.80
2023-06-16T11:03:29.058Z,2.90
2023-06-16T11:04:28.974Z,2.80
2023-06-16T11:05:28.993Z,3.00
2023-06-16T11:06:28.948Z,2.70
2023-06-16T11:07:35.026Z,2.60
2023-06-16T11:08:28.915Z,2.80
2023-06-16T11:09:28.914Z,2.80
2023-06-16T11:10:28.873Z,2.90
2023-06-16T11:11:28.860Z,2.90
2023-06-16T11:12:28.895Z,2.80
2023-06-16T11:13:28.871Z,2.60
2023-06-16T11:14:28.846Z,2.90
2023-06-16T11:15:28.841Z,2.50
2023-06-16T11:16:28.842Z,2.80
2023-06-16T11:17:28.835Z,2.50
2023-06-16T11:18:28.832Z,3.10
2023-06-16T11:19:28.802Z,2.60
2023-06-16T11:20:28.765Z,2.50
2023-06-16T11:21:28.750Z,2.90
2023-06-16T11:22:28.810Z,2.80
2023-06-16T11:23:29.511Z,3.00
2023-06-16T11:24:28.777Z,2.70
2023-06-16T11:25:28.729Z,3.10
2023-06-16T11:26:28.703Z,2.80
2023-06-16T11:27:28.689Z,3.40
2023-06-16T11:28:28.717Z,2.90
2023-06-16T11:29:28.687Z,2.80
2023-06-16T11:30:28.877Z,3.10
2023-06-16T11:31:28.951Z,3.10
2023-06-16T11:32:28.699Z,2.80
2023-06-16T11:33:28.634Z,3.30
2023-06-16T11:34:28.612Z,2.90
2023-06-16T11:35:28.613Z,3.00
2023-06-16T11:36:28.599Z,3.20
2023-06-16T11:37:28.578Z,2.80
2023-06-16T11:38:28.567Z,3.00
2023-06-16T11:39:28.564Z,2.80
2023-06-16T11:40:28.732Z,3.10
2023-06-16T11:41:28.660Z,2.80
2023-06-16T11:42:28.586Z,3.00
2023-06-16T11:43:28.532Z,3.00
2023-06-16T11:44:28.612Z,2.90
2023-06-16T11:45:28.498Z,2.90
2023-06-16T11:46:28.545Z,3.00
2023-06-16T11:47:28.529Z,3.20
2023-06-16T11:48:28.495Z,2.80
2023-06-16T11:49:33.077Z,3.00
2023-06-16T11:50:28.459Z,2.90
2023-06-16T11:51:28.688Z,2.70
2023-06-16T11:52:28.421Z,2.90
2023-06-16T11:53:28.429Z,3.20
2023-06-16T11:54:28.408Z,2.90
2023-06-16T11:55:30.114Z,3.50
2023-06-16T11:56:28.393Z,2.90
2023-06-16T11:57:28.381Z,4.10
2023-06-16T11:58:28.382Z,3.80
2023-06-16T11:59:28.443Z,3.40
2023-06-16T12:00:28.491Z,3.20
2023-06-16T12:01:28.536Z,3.20
2023-06-16T12:02:28.592Z,3.40
2023-06-16T12:03:28.379Z,3.40
2023-06-16T12:04:28.373Z,3.20
2023-06-16T12:05:28.302Z,3.20
2023-06-16T12:06:28.282Z,3.30
2023-06-16T12:07:28.297Z,4.10
2023-06-16T12:08:28.309Z,3.60
2023-06-16T12:09:28.248Z,3.40
2023-06-16T12:10:28.223Z,3.20
2023-06-16T12:11:28.227Z,3.20
2023-06-16T12:12:28.222Z,3.10
2023-06-16T12:13:28.306Z,3.20
2023-06-16T12:14:28.221Z,3.00
2023-06-16T12:15:28.192Z,3.10
2023-06-16T12:16:28.240Z,3.20
2023-06-16T12:17:28.198Z,3.20
2023-06-16T12:18:28.178Z,3.10
2023-06-16T12:19:28.145Z,3.20
2023-06-16T12:20:28.177Z,3.20
2023-06-16T12:21:28.111Z,3.30
2023-06-16T12:22:28.124Z,3.00
2023-06-16T12:23:28.140Z,3.10
2023-06-16T12:24:28.115Z,3.20
2023-06-16T12:25:28.286Z,3.50
2023-06-16T12:26:28.082Z,3.30
2023-06-16T12:27:28.095Z,4.40
2023-06-16T12:28:28.037Z,3.20
2023-06-16T12:29:28.037Z,3.20
2023-06-16T12:30:28.050Z,3.20
2023-06-16T12:31:28.008Z,3.50
2023-06-16T12:32:28.165Z,3.60
2023-06-16T12:33:28.253Z,3.20
2023-06-16T12:34:28.097Z,3.40
2023-06-16T12:35:27.963Z,3.40
2023-06-16T12:36:27.966Z,3.40
2023-06-16T12:37:27.982Z,3.40
2023-06-16T12:38:27.931Z,3.20
2023-06-16T12:39:27.924Z,3.30
2023-06-16T12:40:27.947Z,3.10
2023-06-16T12:41:27.941Z,2.90
2023-06-16T12:42:27.917Z,3.20
2023-06-16T12:43:28.144Z,3.90
2023-06-16T12:44:28.120Z,3.70
2023-06-16T12:45:27.875Z,3.90
2023-06-16T12:46:35.440Z,3.20
2023-06-16T12:47:27.912Z,3.40
2023-06-16T12:48:27.849Z,3.20
2023-06-16T12:49:27.817Z,3.20
2023-06-16T12:50:27.818Z,3.50
2023-06-16T12:51:27.806Z,3.70
2023-06-16T12:52:27.777Z,3.50
2023-06-16T12:53:27.771Z,3.90
2023-06-16T12:54:27.760Z,3.90
2023-06-16T12:55:27.808Z,3.80
2023-06-16T12:56:27.789Z,3.70
2023-06-16T12:57:27.759Z,3.90
2023-06-16T12:58:27.769Z,3.60
2023-06-16T12:59:27.705Z,3.50
2023-06-16T13:00:27.691Z,3.50
2023-06-16T13:01:27.729Z,3.70
2023-06-16T13:02:27.716Z,3.40
2023-06-16T13:03:27.688Z,3.50
2023-06-16T13:04:27.820Z,3.80
2023-06-16T13:05:27.712Z,3.70
2023-06-16T13:06:27.634Z,3.60
2023-06-16T13:07:27.635Z,3.50
2023-06-16T13:08:27.606Z,3.30
2023-06-16T13:09:27.604Z,3.40
2023-06-16T13:10:27.599Z,3.70
2023-06-16T13:11:27.608Z,3.70
2023-06-16T13:12:27.570Z,3.50
2023-06-16T13:13:27.556Z,3.50
2023-06-16T13:14:27.565Z,3.40
2023-06-16T13:15:27.550Z,3.60
2023-06-16T13:16:27.613Z,3.30
2023-06-16T13:17:27.561Z,3.70
2023-06-16T13:18:27.515Z,3.60
2023-06-16T13:19:27.518Z,3.60
2023-06-16T13:20:27.517Z,3.70
2023-06-16T13:21:27.474Z,3.50
2023-06-16T13:22:27.457Z,3.50